sensor_id;sensor_type;location;lat;lon;timestamp;pressure;altitude;pressure_sealevel;temperature;humidity
7050;BME280;22263;52.260;10.548;2022-08-20T00:00:14;100248.91;;;21.70;100.00
7050;BME280;22263;52.260;10.548;2022-08-20T00:02:47;100243.28;;;21.70;100.00
7050;BME280;22263;52.260;10.548;2022-08-20T00:05:29;100244.38;;;21.73;100.00
7050;BME280;22263;52.260;10.548;2022-08-20T00:08:00;100250.94;;;21.70;100.00
7050;BME280;22263;52.260;10.548;2022-08-20T00:10:31;100257.50;;;21.67;100.00
7050;BME280;22263;52.260;10.548;2022-08-20T00:13:08;100249.50;;;21.65;100.00
7050;BME280;22263;52.260;10.548;2022-08-20T00:15:44;100251.88;;;21.67;100.00
7050;BME280;22263;52.260;10.548;2022-08-20T00:18:14;100265.47;;;21.68;100.00
7050;BME280;22263;52.260;10.548;2022-08-20T00:20:50;100262.34;;;21.66;100.00
7050;BME280;22263;52.260;10.548;2022-08-20T00:23:23;100270.44;;;21.64;100.00
7050;BME280;22263;52.260;10.548;2022-08-20T00:25:53;100263.09;;;21.58;100.00
7050;BME280;22263;52.260;10.548;2022-08-20T00:28:22;100254.50;;;21.40;100.00
7050;BME280;22263;52.260;10.548;2022-08-20T00:30:52;100270.41;;;21.34;100.00
7050;BME280;22263;52.260;10.548;2022-08-20T00:33:22;100263.53;;;21.35;100.00
7050;BME280;22263;52.260;10.548;2022-08-20T00:35:55;100268.84;;;21.33;100.00
7050;BME280;22263;52.260;10.548;2022-08-20T00:38:32;100265.38;;;21.28;100.00
7050;BME280;22263;52.260;10.548;2022-08-20T00:41:03;100262.44;;;21.32;100.00
7050;BME280;22263;52.260;10.548;2022-08-20T00:43:38;100262.22;;;21.26;100.00
7050;BME280;22263;52.260;10.548;2022-08-20T00:46:13;100260.91;;;21.18;100.00
7050;BME280;22263;52.260;10.548;2022-08-20T00:48:46;100261.84;;;21.03;100.00
7050;BME280;22263;52.260;10.548;2022-08-20T00:51:23;100277.63;;;21.00;100.00
7050;BME280;22263;52.260;10.548;2022-08-20T00:54:00;100279.91;;;20.80;100.00
7050;BME280;22263;52.260;10.548;2022-08-20T00:56:31;100284.97;;;20.85;100.00
7050;BME280;22263;52.260;10.548;2022-08-20T00:59:04;100287.88;;;20.81;100.00
7050;BME280;22263;52.260;10.548;2022-08-20T01:01:38;100290.81;;;20.78;100.00
7050;BME280;22263;52.260;10.548;2022-08-20T01:04:22;100292.75;;;20.81;100.00
7050;BME280;22263;52.260;10.548;2022-08-20T01:06:56;100284.19;;;20.84;100.00
7050;BME280;22263;52.260;10.548;2022-08-20T01:09:26;100290.91;;;20.87;100.00
7050;BME280;22263;52.260;10.548;2022-08-20T01:12:17;100282.38;;;20.91;100.00
7050;BME280;22263;52.260;10.548;2022-08-20T01:14:49;100289.13;;;20.80;100.00
7050;BME280;22263;52.260;10.548;2022-08-20T01:17:23;100292.53;;;20.75;100.00
7050;BME280;22263;52.260;10.548;2022-08-20T01:19:58;100287.78;;;20.72;100.00
7050;BME280;22263;52.260;10.548;2022-08-20T01:22:42;100294.75;;;20.80;100.00
7050;BME280;22263;52.260;10.548;2022-08-20T01:25:41;100289.00;;;20.84;100.00
7050;BME280;22263;52.260;10.548;2022-08-20T01:28:18;100275.97;;;20.77;100.00
7050;BME280;22263;52.260;10.548;2022-08-20T01:30:49;100268.00;;;20.76;100.00
7050;BME280;22263;52.260;10.548;2022-08-20T01:33:20;100281.41;;;20.72;100.00
7050;BME280;22263;52.260;10.548;2022-08-20T01:35:51;100277.13;;;20.67;100.00
7050;BME280;22263;52.260;10.548;2022-08-20T01:38:23;100275.44;;;20.70;100.00
7050;BME280;22263;52.260;10.548;2022-08-20T01:41:09;100275.88;;;20.68;100.00
7050;BME280;22263;52.260;10.548;2022-08-20T01:43:45;100280.06;;;20.64;100.00
7050;BME280;22263;52.260;10.548;2022-08-20T01:46:17;100271.75;;;20.60;100.00
7050;BME280;22263;52.260;10.548;2022-08-20T01:48:46;100279.03;;;20.58;100.00
7050;BME280;22263;52.260;10.548;2022-08-20T01:51:19;100281.41;;;20.59;100.00
7050;BME280;22263;52.260;10.548;2022-08-20T01:53:51;100277.38;;;20.60;100.00
7050;BME280;22263;52.260;10.548;2022-08-20T01:56:26;100278.50;;;20.50;100.00
7050;BME280;22263;52.260;10.548;2022-08-20T01:58:59;100278.50;;;20.50;100.00
7050;BME280;22263;52.260;10.548;2022-08-20T02:01:33;100276.84;;;20.53;100.00
7050;BME280;22263;52.260;10.548;2022-08-20T02:04:12;100279.75;;;20.49;100.00
7050;BME280;22263;52.260;10.548;2022-08-20T02:06:44;100284.91;;;20.51;100.00
7050;BME280;22263;52.260;10.548;2022-08-20T02:09:23;100284.34;;;20.56;100.00
7050;BME280;22263;52.260;10.548;2022-08-20T02:11:55;100282.66;;;20.58;100.00
7050;BME280;22263;52.260;10.548;2022-08-20T02:14:26;100290.41;;;20.54;100.00
7050;BME280;22263;52.260;10.548;2022-08-20T02:16:56;100287.16;;;20.56;100.00
7050;BME280;22263;52.260;10.548;2022-08-20T02:19:28;100288.06;;;20.53;100.00
7050;BME280;22263;52.260;10.548;2022-08-20T02:22:06;100284.88;;;20.63;100.00
7050;BME280;22263;52.260;10.548;2022-08-20T02:24:37;100282.88;;;20.64;100.00
7050;BME280;22263;52.260;10.548;2022-08-20T02:27:09;100285.91;;;20.69;100.00
7050;BME280;22263;52.260;10.548;2022-08-20T02:29:39;100279.47;;;20.69;100.00
7050;BME280;22263;52.260;10.548;2022-08-20T02:32:09;100285.31;;;20.74;100.00
7050;BME280;22263;52.260;10.548;2022-08-20T02:34:58;100284.53;;;20.74;100.00
7050;BME280;22263;52.260;10.548;2022-08-20T02:37:29;100282.63;;;20.71;100.00
7050;BME280;22263;52.260;10.548;2022-08-20T02:39:58;100289.72;;;20.75;100.00
7050;BME280;22263;52.260;10.548;2022-08-20T02:42:31;100298.16;;;20.75;100.00
7050;BME280;22263;52.260;10.548;2022-08-20T02:45:01;100298.16;;;20.75;100.00
7050;BME280;22263;52.260;10.548;2022-08-20T02:47:32;100298.16;;;20.75;100.00
7050;BME280;22263;52.260;10.548;2022-08-20T02:50:02;100303.41;;;20.73;100.00
7050;BME280;22263;52.260;10.548;2022-08-20T02:52:33;100305.13;;;20.71;100.00
7050;BME280;22263;52.260;10.548;2022-08-20T02:55:03;100304.03;;;20.56;100.00
7050;BME280;22263;52.260;10.548;2022-08-20T02:57:51;100301.88;;;20.60;100.00
7050;BME280;22263;52.260;10.548;2022-08-20T03:00:26;100301.88;;;20.60;100.00
7050;BME280;22263;52.260;10.548;2022-08-20T03:03:04;100309.19;;;20.57;100.00
7050;BME280;22263;52.260;10.548;2022-08-20T03:05:33;100313.94;;;20.48;100.00
7050;BME280;22263;52.260;10.548;2022-08-20T03:08:06;100308.41;;;20.44;100.00
7050;BME280;22263;52.260;10.548;2022-08-20T03:10:37;100317.19;;;20.46;100.00
7050;BME280;22263;52.260;10.548;2022-08-20T03:13:11;100317.97;;;20.47;100.00
7050;BME280;22263;52.260;10.548;2022-08-20T03:15:44;100318.75;;;20.47;100.00
7050;BME280;22263;52.260;10.548;2022-08-20T03:18:15;100318.09;;;20.43;100.00
7050;BME280;22263;52.260;10.548;2022-08-20T03:20:47;100318.53;;;20.41;100.00
7050;BME280;22263;52.260;10.548;2022-08-20T03:23:19;100320.91;;;20.43;100.00
7050;BME280;22263;52.260;10.548;2022-08-20T03:25:48;100322.00;;;20.45;100.00
7050;BME280;22263;52.260;10.548;2022-08-20T03:28:21;100321.09;;;20.49;100.00
7050;BME280;22263;52.260;10.548;2022-08-20T03:30:51;100304.59;;;20.51;100.00
7050;BME280;22263;52.260;10.548;2022-08-20T03:33:22;100309.84;;;20.49;100.00
7050;BME280;22263;52.260;10.548;2022-08-20T03:35:52;100324.38;;;20.47;100.00
7050;BME280;22263;52.260;10.548;2022-08-20T03:38:23;100319.53;;;20.48;100.00
7050;BME280;22263;52.260;10.548;2022-08-20T03:40:58;100310.88;;;20.42;100.00
7050;BME280;22263;52.260;10.548;2022-08-20T03:43:32;100314.25;;;20.37;100.00
7050;BME280;22263;52.260;10.548;2022-08-20T03:46:03;100320.88;;;20.30;100.00
7050;BME280;22263;52.260;10.548;2022-08-20T03:48:48;100309.84;;;20.23;100.00
7050;BME280;22263;52.260;10.548;2022-08-20T03:51:26;100311.09;;;20.22;100.00
7050;BME280;22263;52.260;10.548;2022-08-20T03:53:55;100315.56;;;20.20;100.00
7050;BME280;22263;52.260;10.548;2022-08-20T03:56:26;100316.91;;;20.15;100.00
7050;BME280;22263;52.260;10.548;2022-08-20T03:58:58;100320.63;;;20.12;100.00
7050;BME280;22263;52.260;10.548;2022-08-20T04:01:27;100327.59;;;20.08;100.00
7050;BME280;22263;52.260;10.548;2022-08-20T04:04:12;100323.63;;;20.05;100.00
7050;BME280;22263;52.260;10.548;2022-08-20T04:06:42;100331.19;;;20.08;100.00
7050;BME280;22263;52.260;10.548;2022-08-20T04:09:13;100312.41;;;20.05;100.00
7050;BME280;22263;52.260;10.548;2022-08-20T04:11:43;100319.59;;;20.06;100.00
7050;BME280;22263;52.260;10.548;2022-08-20T04:14:15;100320.50;;;20.03;100.00
7050;BME280;22263;52.260;10.548;2022-08-20T04:16:46;100330.41;;;20.08;100.00
7050;BME280;22263;52.260;10.548;2022-08-20T04:19:16;100343.28;;;20.05;100.00
7050;BME280;22263;52.260;10.548;2022-08-20T04:21:46;100335.66;;;20.06;100.00
7050;BME280;22263;52.260;10.548;2022-08-20T04:24:16;100335.66;;;20.06;100.00
7050;BME280;22263;52.260;10.548;2022-08-20T04:26:58;100331.63;;;20.07;100.00
7050;BME280;22263;52.260;10.548;2022-08-20T04:29:31;100335.66;;;20.06;100.00
7050;BME280;22263;52.260;10.548;2022-08-20T04:32:02;100333.63;;;20.06;100.00
7050;BME280;22263;52.260;10.548;2022-08-20T04:34:33;100337.22;;;20.07;100.00
7050;BME280;22263;52.260;10.548;2022-08-20T04:37:03;100339.59;;;20.08;100.00
7050;BME280;22263;52.260;10.548;2022-08-20T04:39:42;100339.72;;;20.05;100.00
7050;BME280;22263;52.260;10.548;2022-08-20T04:42:34;100343.63;;;20.07;100.00
7050;BME280;22263;52.260;10.548;2022-08-20T04:45:06;100346.44;;;20.07;100.00
7050;BME280;22263;52.260;10.548;2022-08-20T04:47:35;100346.09;;;20.05;100.00
7050;BME280;22263;52.260;10.548;2022-08-20T04:50:08;100340.84;;;20.07;100.00
7050;BME280;22263;52.260;10.548;2022-08-20T04:52:38;100346.09;;;19.92;100.00
7050;BME280;22263;52.260;10.548;2022-08-20T04:55:09;100348.53;;;19.90;100.00
7050;BME280;22263;52.260;10.548;2022-08-20T04:57:38;100354.25;;;19.87;100.00
7050;BME280;22263;52.260;10.548;2022-08-20T05:00:13;100352.84;;;19.95;100.00
7050;BME280;22263;52.260;10.548;2022-08-20T05:02:44;100359.81;;;20.03;100.00
7050;BME280;22263;52.260;10.548;2022-08-20T05:05:14;100355.44;;;20.02;100.00
7050;BME280;22263;52.260;10.548;2022-08-20T05:07:45;100365.75;;;20.05;100.00
7050;BME280;22263;52.260;10.548;2022-08-20T05:10:16;100353.41;;;20.02;100.00
7050;BME280;22263;52.260;10.548;2022-08-20T05:12:47;100352.19;;;20.03;100.00
7050;BME280;22263;52.260;10.548;2022-08-20T05:15:25;100353.66;;;20.08;100.00
7050;BME280;22263;52.260;10.548;2022-08-20T05:17:56;100353.88;;;20.14;100.00
7050;BME280;22263;52.260;10.548;2022-08-20T05:20:28;100357.91;;;20.25;100.00
7050;BME280;22263;52.260;10.548;2022-08-20T05:23:00;100344.94;;;20.31;100.00
7050;BME280;22263;52.260;10.548;2022-08-20T05:25:30;100355.84;;;20.42;100.00
7050;BME280;22263;52.260;10.548;2022-08-20T05:28:01;100353.47;;;20.53;100.00
7050;BME280;22263;52.260;10.548;2022-08-20T05:30:38;100351.00;;;20.55;100.00
7050;BME280;22263;52.260;10.548;2022-08-20T05:33:09;100355.72;;;20.45;100.00
7050;BME280;22263;52.260;10.548;2022-08-20T05:35:42;100363.34;;;20.45;100.00
7050;BME280;22263;52.260;10.548;2022-08-20T05:38:16;100368.78;;;20.52;100.00
7050;BME280;22263;52.260;10.548;2022-08-20T05:40:47;100367.31;;;20.48;100.00
7050;BME280;22263;52.260;10.548;2022-08-20T05:43:17;100372.56;;;20.45;100.00
7050;BME280;22263;52.260;10.548;2022-08-20T05:45:49;100376.28;;;20.42;100.00
7050;BME280;22263;52.260;10.548;2022-08-20T05:48:23;100369.66;;;20.36;100.00
7050;BME280;22263;52.260;10.548;2022-08-20T05:50:53;100378.19;;;20.45;100.00
7050;BME280;22263;52.260;10.548;2022-08-20T05:53:24;100383.34;;;20.34;100.00
7050;BME280;22263;52.260;10.548;2022-08-20T05:55:53;100382.47;;;20.50;100.00
7050;BME280;22263;52.260;10.548;2022-08-20T05:58:24;100382.03;;;20.52;100.00
7050;BME280;22263;52.260;10.548;2022-08-20T06:00:57;100385.63;;;20.65;100.00
7050;BME280;22263;52.260;10.548;2022-08-20T06:03:27;100378.75;;;20.53;100.00
7050;BME280;22263;52.260;10.548;2022-08-20T06:06:09;100374.81;;;20.63;100.00
7050;BME280;22263;52.260;10.548;2022-08-20T06:08:59;100370.78;;;20.64;100.00
7050;BME280;22263;52.260;10.548;2022-08-20T06:11:28;100371.00;;;20.70;100.00
7050;BME280;22263;52.260;10.548;2022-08-20T06:14:02;100372.13;;;20.85;100.00
7050;BME280;22263;52.260;10.548;2022-08-20T06:16:35;100373.00;;;20.95;100.00
7050;BME280;22263;52.260;10.548;2022-08-20T06:19:21;100379.81;;;21.06;100.00
7050;BME280;22263;52.260;10.548;2022-08-20T06:21:51;100378.72;;;21.16;100.00
7050;BME280;22263;52.260;10.548;2022-08-20T06:24:22;100377.00;;;21.06;100.00
7050;BME280;22263;52.260;10.548;2022-08-20T06:26:54;100386.72;;;21.05;100.00
7050;BME280;22263;52.260;10.548;2022-08-20T06:29:25;100389.84;;;21.20;100.00
7050;BME280;22263;52.260;10.548;2022-08-20T06:31:57;100398.63;;;21.22;100.00
7050;BME280;22263;52.260;10.548;2022-08-20T06:34:27;100394.47;;;21.01;100.00
7050;BME280;22263;52.260;10.548;2022-08-20T06:36:58;100399.41;;;20.97;100.00
7050;BME280;22263;52.260;10.548;2022-08-20T06:39:30;100400.44;;;21.03;100.00
7050;BME280;22263;52.260;10.548;2022-08-20T06:42:00;100394.81;;;21.03;100.00
7050;BME280;22263;52.260;10.548;2022-08-20T06:44:30;100398.75;;;21.18;100.00
7050;BME280;22263;52.260;10.548;2022-08-20T06:47:03;100398.97;;;21.24;100.00
7050;BME280;22263;52.260;10.548;2022-08-20T06:49:34;100393.34;;;21.24;100.00
7050;BME280;22263;52.260;10.548;2022-08-20T06:52:04;100393.06;;;21.31;100.00
7050;BME280;22263;52.260;10.548;2022-08-20T06:54:37;100382.66;;;21.19;100.00
7050;BME280;22263;52.260;10.548;2022-08-20T06:57:06;100399.31;;;21.13;100.00
7050;BME280;22263;52.260;10.548;2022-08-20T06:59:36;100392.78;;;21.16;100.00
7050;BME280;22263;52.260;10.548;2022-08-20T07:02:08;100387.81;;;21.20;100.00
7050;BME280;22263;52.260;10.548;2022-08-20T07:04:37;100386.78;;;21.27;100.00
7050;BME280;22263;52.260;10.548;2022-08-20T07:07:14;100386.91;;;21.23;100.00
7050;BME280;22263;52.260;10.548;2022-08-20T07:09:44;100382.63;;;21.31;100.00
7050;BME280;22263;52.260;10.548;2022-08-20T07:12:14;100389.16;;;21.28;100.00
7050;BME280;22263;52.260;10.548;2022-08-20T07:14:44;100386.28;;;21.41;100.00
7050;BME280;22263;52.260;10.548;2022-08-20T07:17:16;100384.31;;;21.29;100.00
7050;BME280;22263;52.260;10.548;2022-08-20T07:19:45;100383.81;;;21.43;100.00
7050;BME280;22263;52.260;10.548;2022-08-20T07:22:15;100393.44;;;21.55;100.00
7050;BME280;22263;52.260;10.548;2022-08-20T07:24:44;100391.13;;;21.41;100.00
7050;BME280;22263;52.260;10.548;2022-08-20T07:27:19;100394.38;;;21.52;100.00
7050;BME280;22263;52.260;10.548;2022-08-20T07:29:50;100396.63;;;21.44;100.00
7050;BME280;22263;52.260;10.548;2022-08-20T07:32:41;100392.56;;;21.58;100.00
7050;BME280;22263;52.260;10.548;2022-08-20T07:35:15;100398.25;;;21.67;100.00
7050;BME280;22263;52.260;10.548;2022-08-20T07:37:47;100394.91;;;21.81;100.00
7050;BME280;22263;52.260;10.548;2022-08-20T07:40:20;100396.50;;;22.04;100.00
7050;BME280;22263;52.260;10.548;2022-08-20T07:42:52;100405.00;;;21.91;100.00
7050;BME280;22263;52.260;10.548;2022-08-20T07:45:23;100399.97;;;22.08;100.00
7050;BME280;22263;52.260;10.548;2022-08-20T07:48:05;100400.63;;;21.90;100.00
7050;BME280;22263;52.260;10.548;2022-08-20T07:50:35;100394.34;;;22.08;100.00
7050;BME280;22263;52.260;10.548;2022-08-20T07:53:04;100401.41;;;22.12;100.00
7050;BME280;22263;52.260;10.548;2022-08-20T07:55:34;100405.47;;;22.11;100.00
7050;BME280;22263;52.260;10.548;2022-08-20T07:58:07;100409.59;;;21.98;100.00
7050;BME280;22263;52.260;10.548;2022-08-20T08:00:37;100412.31;;;22.01;100.00
7050;BME280;22263;52.260;10.548;2022-08-20T08:03:10;100412.47;;;22.07;100.00
7050;BME280;22263;52.260;10.548;2022-08-20T08:05:43;100422.66;;;22.04;100.00
7050;BME280;22263;52.260;10.548;2022-08-20T08:08:17;100420.69;;;22.14;100.00
7050;BME280;22263;52.260;10.548;2022-08-20T08:10:52;100425.19;;;22.11;100.00
7050;BME280;22263;52.260;10.548;2022-08-20T08:13:25;100420.28;;;22.25;100.00
7050;BME280;22263;52.260;10.548;2022-08-20T08:15:58;100429.16;;;22.45;100.00
7050;BME280;22263;52.260;10.548;2022-08-20T08:18:35;100427.94;;;22.55;100.00
7050;BME280;22263;52.260;10.548;2022-08-20T08:21:06;100428.91;;;22.30;100.00
7050;BME280;22263;52.260;10.548;2022-08-20T08:23:38;100430.63;;;22.28;100.00
7050;BME280;22263;52.260;10.548;2022-08-20T08:26:10;100436.66;;;22.39;100.00
7050;BME280;22263;52.260;10.548;2022-08-20T08:28:43;100435.84;;;22.69;100.00
7050;BME280;22263;52.260;10.548;2022-08-20T08:31:13;100441.44;;;22.82;100.00
7050;BME280;22263;52.260;10.548;2022-08-20T08:33:46;100437.78;;;22.72;100.00
7050;BME280;22263;52.260;10.548;2022-08-20T08:36:15;100436.91;;;22.93;100.00
7050;BME280;22263;52.260;10.548;2022-08-20T08:38:45;100439.41;;;22.82;100.00
7050;BME280;22263;52.260;10.548;2022-08-20T08:41:17;100446.16;;;22.94;100.00
7050;BME280;22263;52.260;10.548;2022-08-20T08:43:50;100442.19;;;23.22;100.00
7050;BME280;22263;52.260;10.548;2022-08-20T08:46:23;100449.53;;;23.11;100.00
7050;BME280;22263;52.260;10.548;2022-08-20T08:48:58;100440.66;;;22.81;100.00
7050;BME280;22263;52.260;10.548;2022-08-20T08:51:36;100449.63;;;22.67;100.00
7050;BME280;22263;52.260;10.548;2022-08-20T08:54:11;100442.66;;;22.72;100.00
7050;BME280;22263;52.260;10.548;2022-08-20T08:56:42;100450.41;;;22.98;100.00
7050;BME280;22263;52.260;10.548;2022-08-20T08:59:17;100452.47;;;23.07;100.00
7050;BME280;22263;52.260;10.548;2022-08-20T09:01:51;100450.50;;;22.77;100.00
7050;BME280;22263;52.260;10.548;2022-08-20T09:04:27;100459.44;;;22.53;100.00
7050;BME280;22263;52.260;10.548;2022-08-20T09:07:00;100456.53;;;22.66;100.00
7050;BME280;22263;52.260;10.548;2022-08-20T09:09:33;100459.41;;;23.06;100.00
7050;BME280;22263;52.260;10.548;2022-08-20T09:12:06;100459.00;;;22.86;100.00
7050;BME280;22263;52.260;10.548;2022-08-20T09:14:36;100467.69;;;23.00;100.00
7050;BME280;22263;52.260;10.548;2022-08-20T09:17:07;100458.09;;;23.47;100.00
7050;BME280;22263;52.260;10.548;2022-08-20T09:19:39;100463.53;;;23.41;100.00
7050;BME280;22263;52.260;10.548;2022-08-20T09:22:09;100456.53;;;23.55;100.00
7050;BME280;22263;52.260;10.548;2022-08-20T09:24:40;100462.41;;;23.21;100.00
7050;BME280;22263;52.260;10.548;2022-08-20T09:27:10;100460.25;;;23.43;100.00
7050;BME280;22263;52.260;10.548;2022-08-20T09:29:40;100457.41;;;23.25;100.00
7050;BME280;22263;52.260;10.548;2022-08-20T09:32:13;100456.63;;;23.33;100.00
7050;BME280;22263;52.260;10.548;2022-08-20T09:34:51;100455.28;;;23.56;100.00
7050;BME280;22263;52.260;10.548;2022-08-20T09:37:23;100455.28;;;23.74;100.00
7050;BME280;22263;52.260;10.548;2022-08-20T09:39:53;100454.03;;;23.84;100.00
7050;BME280;22263;52.260;10.548;2022-08-20T09:42:25;100458.16;;;23.93;100.00
7050;BME280;22263;52.260;10.548;2022-08-20T09:44:56;100461.13;;;24.07;100.00
7050;BME280;22263;52.260;10.548;2022-08-20T09:47:27;100464.72;;;23.80;100.00
7050;BME280;22263;52.260;10.548;2022-08-20T09:49:59;100454.66;;;23.79;100.00
7050;BME280;22263;52.260;10.548;2022-08-20T09:52:31;100466.94;;;23.76;100.00
7050;BME280;22263;52.260;10.548;2022-08-20T09:55:14;100470.38;;;23.62;100.00
7050;BME280;22263;52.260;10.548;2022-08-20T09:57:45;100461.09;;;23.71;100.00
7050;BME280;22263;52.260;10.548;2022-08-20T10:00:16;100459.53;;;23.70;100.00
7050;BME280;22263;52.260;10.548;2022-08-20T10:02:46;100463.47;;;23.54;100.00
7050;BME280;22263;52.260;10.548;2022-08-20T10:05:18;100466.41;;;23.51;100.00
7050;BME280;22263;52.260;10.548;2022-08-20T10:07:48;100459.53;;;23.52;100.00
7050;BME280;22263;52.260;10.548;2022-08-20T10:10:17;100467.50;;;23.44;100.00
7050;BME280;22263;52.260;10.548;2022-08-20T10:12:47;100467.41;;;23.93;100.00
7050;BME280;22263;52.260;10.548;2022-08-20T10:15:20;100465.66;;;23.96;100.00
7050;BME280;22263;52.260;10.548;2022-08-20T10:17:50;100470.69;;;23.64;100.00
7050;BME280;22263;52.260;10.548;2022-08-20T10:20:23;100470.28;;;23.35;100.00
7050;BME280;22263;52.260;10.548;2022-08-20T10:22:53;100473.53;;;23.73;100.00
7050;BME280;22263;52.260;10.548;2022-08-20T10:25:22;100466.91;;;23.67;100.00
7050;BME280;22263;52.260;10.548;2022-08-20T10:27:52;100469.13;;;23.90;100.00
7050;BME280;22263;52.260;10.548;2022-08-20T10:30:22;100466.94;;;23.85;100.00
7050;BME280;22263;52.260;10.548;2022-08-20T10:32:51;100470.06;;;23.97;100.00
7050;BME280;22263;52.260;10.548;2022-08-20T10:35:23;100470.38;;;23.99;100.00
7050;BME280;22263;52.260;10.548;2022-08-20T10:37:53;100464.75;;;24.17;100.00
7050;BME280;22263;52.260;10.548;2022-08-20T10:40:23;100462.69;;;24.17;100.00
7050;BME280;22263;52.260;10.548;2022-08-20T10:42:52;100457.69;;;24.21;100.00
7050;BME280;22263;52.260;10.548;2022-08-20T10:45:22;100450.53;;;24.53;100.00
7050;BME280;22263;52.260;10.548;2022-08-20T10:47:52;100447.59;;;24.90;100.00
7050;BME280;22263;52.260;10.548;2022-08-20T10:50:25;100453.75;;;25.21;100.00
7050;BME280;22263;52.260;10.548;2022-08-20T10:52:56;100453.06;;;25.02;100.00
7050;BME280;22263;52.260;10.548;2022-08-20T10:55:26;100456.78;;;24.66;100.00
7050;BME280;22263;52.260;10.548;2022-08-20T10:57:55;100457.75;;;24.63;100.00
7050;BME280;22263;52.260;10.548;2022-08-20T11:00:25;100457.09;;;25.10;100.00
7050;BME280;22263;52.260;10.548;2022-08-20T11:02:54;100450.34;;;25.08;100.00
7050;BME280;22263;52.260;10.548;2022-08-20T11:05:27;100457.25;;;24.74;100.00
7050;BME280;22263;52.260;10.548;2022-08-20T11:07:56;100453.63;;;24.73;100.00
7050;BME280;22263;52.260;10.548;2022-08-20T11:10:30;100452.63;;;25.18;100.00
7050;BME280;22263;52.260;10.548;2022-08-20T11:13:02;100458.09;;;25.31;100.00
7050;BME280;22263;52.260;10.548;2022-08-20T11:15:36;100456.59;;;25.45;100.00
7050;BME280;22263;52.260;10.548;2022-08-20T11:18:07;100452.09;;;25.05;100.00
7050;BME280;22263;52.260;10.548;2022-08-20T11:20:39;100451.16;;;24.57;100.00
7050;BME280;22263;52.260;10.548;2022-08-20T11:23:09;100439.47;;;24.73;100.00
7050;BME280;22263;52.260;10.548;2022-08-20T11:25:39;100449.72;;;25.13;100.00
7050;BME280;22263;52.260;10.548;2022-08-20T11:28:08;100453.44;;;25.19;100.00
7050;BME280;22263;52.260;10.548;2022-08-20T11:30:39;100460.41;;;25.33;100.00
7050;BME280;22263;52.260;10.548;2022-08-20T11:33:12;100447.38;;;25.59;100.00
7050;BME280;22263;52.260;10.548;2022-08-20T11:35:45;100449.75;;;25.60;100.00
7050;BME280;22263;52.260;10.548;2022-08-20T11:38:16;100455.75;;;26.30;100.00
7050;BME280;22263;52.260;10.548;2022-08-20T11:40:46;100452.16;;;26.44;100.00
7050;BME280;22263;52.260;10.548;2022-08-20T11:43:16;100447.59;;;26.82;100.00
7050;BME280;22263;52.260;10.548;2022-08-20T11:45:47;100449.50;;;26.56;100.00
7050;BME280;22263;52.260;10.548;2022-08-20T11:48:18;100446.44;;;26.15;100.00
7050;BME280;22263;52.260;10.548;2022-08-20T11:50:50;100449.78;;;26.14;100.00
7050;BME280;22263;52.260;10.548;2022-08-20T11:53:20;100448.72;;;25.87;100.00
7050;BME280;22263;52.260;10.548;2022-08-20T11:55:50;100458.41;;;25.57;100.00
7050;BME280;22263;52.260;10.548;2022-08-20T11:58:20;100461.41;;;25.53;100.00
7050;BME280;22263;52.260;10.548;2022-08-20T12:00:50;100462.06;;;25.48;100.00
7050;BME280;22263;52.260;10.548;2022-08-20T12:03:20;100457.88;;;25.68;100.00
7050;BME280;22263;52.260;10.548;2022-08-20T12:05:52;100455.63;;;25.72;100.00
7050;BME280;22263;52.260;10.548;2022-08-20T12:08:23;100454.44;;;25.64;100.00
7050;BME280;22263;52.260;10.548;2022-08-20T12:10:55;100453.47;;;25.67;100.00
7050;BME280;22263;52.260;10.548;2022-08-20T12:13:27;100450.59;;;25.90;100.00
7050;BME280;22263;52.260;10.548;2022-08-20T12:16:15;100438.50;;;26.19;100.00
7050;BME280;22263;52.260;10.548;2022-08-20T12:18:45;100453.91;;;26.71;100.00
7050;BME280;22263;52.260;10.548;2022-08-20T12:21:17;100457.06;;;27.23;100.00
7050;BME280;22263;52.260;10.548;2022-08-20T12:23:47;100450.09;;;26.89;100.00
7050;BME280;22263;52.260;10.548;2022-08-20T12:26:16;100454.41;;;26.70;100.00
7050;BME280;22263;52.260;10.548;2022-08-20T12:28:46;100452.81;;;26.98;100.00
7050;BME280;22263;52.260;10.548;2022-08-20T12:31:15;100456.06;;;26.62;100.00
7050;BME280;22263;52.260;10.548;2022-08-20T12:33:45;100452.81;;;26.69;100.00
7050;BME280;22263;52.260;10.548;2022-08-20T12:36:17;100457.63;;;25.95;100.00
7050;BME280;22263;52.260;10.548;2022-08-20T12:38:46;100451.34;;;25.76;100.00
7050;BME280;22263;52.260;10.548;2022-08-20T12:41:16;100445.16;;;26.01;100.00
7050;BME280;22263;52.260;10.548;2022-08-20T12:43:45;100453.81;;;26.36;100.00
7050;BME280;22263;52.260;10.548;2022-08-20T12:46:14;100454.78;;;26.33;100.00
7050;BME280;22263;52.260;10.548;2022-08-20T12:48:44;100457.06;;;25.67;100.00
7050;BME280;22263;52.260;10.548;2022-08-20T12:51:13;100454.28;;;25.34;100.00
7050;BME280;22263;52.260;10.548;2022-08-20T12:53:45;100461.69;;;24.99;100.00
7050;BME280;22263;52.260;10.548;2022-08-20T12:56:15;100469.63;;;24.76;100.00
7050;BME280;22263;52.260;10.548;2022-08-20T12:58:44;100470.63;;;24.64;100.00
7050;BME280;22263;52.260;10.548;2022-08-20T13:01:14;100481.22;;;24.00;100.00
7050;BME280;22263;52.260;10.548;2022-08-20T13:03:43;100488.63;;;23.30;100.00
7050;BME280;22263;52.260;10.548;2022-08-20T13:06:13;100488.25;;;22.79;100.00